Reklama

Seznam meteostanic a jejich METAR

Vyhledat místa podle abecedy:
A B C D E F G H I J K L M N O P Q R S T U V W X Y Z

Filtrovat:

ID stanice:
a/nebo
Název místa (fulltext):
 
Místo (ID)Naposledy načteno 
Náměšť nad Oslavou (Namest n/O) 15.12.2019 21:00 UTC Zobrazit data
Místo: Náměšť nad Oslavou
Teplota: 2 °C (pocitová: -4.7 °C)
Vítr: 3 m/s z(e) 190°
Počasí: zataženo
Dohlednost: 10 km
Zákl. oblačnosti: 4/8 1500 m;8/8 3600 m
Vlhkost: 87%
N'Djamena (FTTJ) 15.12.2019 21:00 UTC Zobrazit METAR
FTTJ 152100Z 31003KT CAVOK 20/04 Q1013 NOSIG
Nairobi (HKJK) 15.12.2019 21:00 UTC Zobrazit METAR
HKJK 152100Z 02008KT 9999 SCT008 BKN080 18/17 Q1021 NOSIG
Nantes/ Atlantique (LFRS) 15.12.2019 21:00 UTC Zobrazit METAR
LFRS 152100Z AUTO 18008KT 9999 FEW022 BKN150 OVC170 09/08 Q1005 TEMPO SCT025TCU
Nassau (MYNN) 15.12.2019 21:00 UTC Zobrazit METAR
MYNN 152100Z 09011KT 9999 BKN020 26/21 A3010
Nauru (ANAU) Zatím nenačteno  
Nausori (NFNA) 15.12.2019 21:00 UTC Zobrazit METAR
NFNA 152100Z 34006KT 9999 -RA SCT017 BKN045 OVC110 24/23 Q1010
New York (KNYC) 15.12.2019 20:51 UTC Zobrazit METAR
KNYC 152051Z AUTO 27012G25KT 10SM SCT060 06/M06 A2995 RMK AO2 SLP132 T00611061 53041 $
Newcastle (EGNT) 15.12.2019 20:50 UTC Zobrazit METAR
EGNT 152050Z 11005KT 9999 SCT028 03/01 Q0990
Niamey (DRRN) 15.12.2019 21:00 UTC Zobrazit METAR
DRRN 152100Z 07007KT CAVOK 24/M11 Q1014 NOSIG
Nice/ Cote D'Azur (LFMN) 15.12.2019 21:00 UTC Zobrazit METAR
LFMN 152100Z 33004KT 9999 FEW019 SCT060 11/10 Q1017
Niue Island (NIUE) 15.12.2019 20:00 UTC Zobrazit METAR
NIUE 152000Z 10016KT 9999 SCT018 BKN030 27/24 Q1010
Nizhny Novgorod (UWGG) 13.10.2017 15:00 UTC Zobrazit METAR
UWGG 131500Z 9000 NSC 10/07 Q1006 R18R/290050 NOSIG RMK QFE747
North Caicos I. (MBNC) Zatím nenačteno  
Nouakchott (GQNN) 23.06.2016 11:00 UTC Zobrazit METAR
GQNN 231100Z 23009KT 180V250 7000 BKN010 25/18 Q1013 NOSIG
Noumea (NWWM) Zatím nenačteno  
Nuku'alofa (NFTF) 15.12.2019 20:00 UTC Zobrazit METAR
NFTF 152000Z 09009KT 9999 FEW017 OVC120 27/23 Q1012
Reklama

Počasí na Váš email

Emaily jsou bez reklamy a bez spamu



Odhlásit newsletter

Reklama


Lunární kalendář

  • 19.12.
  • 26.12.
  • 03.01.
  • 10.01.



Reklama


Reklama
Povinné ručení
Reklama



Reklama